Time;durP1;ratioP1;P1;durP2;ratioP2;P2;SDS_P1;SDS_P2;PMS_P1;PMS_P2;Temp;Humidity;BMP_temperature;BMP_pressure;BME280_temperature;BME280_humidity;BME280_pressure;Samples;Min_cycle;Max_cycle;Signal;HPM_P1;HPM_P2
2021/11/05 00:01:33;;;;;;;122.93;50.00;;;6.90;1.00;;;;;;5075290;28;20228;-61
2021/11/05 00:03:59;;;;;;;126.60;51.57;;;6.90;1.00;;;;;;5075378;28;20233;-60
2021/11/05 00:06:27;;;;;;;118.80;50.70;;;7.00;1.00;;;;;;5074826;28;20208;-61
2021/11/05 00:08:54;;;;;;;113.37;50.47;;;7.00;1.00;;;;;;5075309;28;20263;-61
2021/11/05 00:11:21;;;;;;;122.37;51.13;;;7.10;1.00;;;;;;5074958;28;20205;-61
2021/11/05 00:13:47;;;;;;;118.60;49.10;;;7.10;99.90;;;;;;5074836;28;20221;-61
2021/11/05 00:16:14;;;;;;;112.43;50.13;;;7.10;1.00;;;;;;5074589;28;20214;-59
2021/11/05 00:18:40;;;;;;;110.07;47.53;;;7.10;99.90;;;;;;5075298;28;20625;-61
2021/11/05 00:21:07;;;;;;;116.93;50.43;;;7.10;99.90;;;;;;5075292;28;20201;-60
2021/11/05 00:23:35;;;;;;;112.97;48.57;;;7.10;99.90;;;;;;5075240;28;20226;-60
2021/11/05 00:26:02;;;;;;;119.93;51.47;;;7.10;1.00;;;;;;5074764;28;20205;-61
2021/11/05 00:28:28;;;;;;;116.03;49.57;;;7.10;99.90;;;;;;5074857;28;20233;-60
2021/11/05 00:30:56;;;;;;;121.50;51.40;;;7.10;99.90;;;;;;5074959;28;20270;-61
2021/11/05 00:33:23;;;;;;;120.07;50.13;;;7.10;99.90;;;;;;5074578;28;20229;-61
2021/11/05 00:35:50;;;;;;;110.67;47.97;;;7.10;2.70;;;;;;5074510;28;20205;-61
2021/11/05 00:38:17;;;;;;;114.23;46.43;;;7.20;1.00;;;;;;5074740;28;20208;-61
2021/11/05 00:40:45;;;;;;;115.07;47.03;;;7.20;27.30;;;;;;5073698;28;20208;-60
2021/11/05 00:43:12;;;;;;;122.03;48.00;;;7.20;1.00;;;;;;5074751;28;20217;-61
2021/11/05 00:45:39;;;;;;;128.07;50.57;;;7.10;1.00;;;;;;5074025;28;20212;-60
2021/11/05 00:48:06;;;;;;;130.37;49.73;;;7.10;99.90;;;;;;5074599;28;20212;-61
2021/11/05 00:50:33;;;;;;;138.57;50.33;;;7.10;99.90;;;;;;5074527;28;20208;-60
2021/11/05 00:52:59;;;;;;;131.77;50.53;;;7.10;99.90;;;;;;5074290;28;20225;-60
2021/11/05 00:55:26;;;;;;;127.97;50.73;;;7.20;99.90;;;;;;5073875;28;20255;-60
2021/11/05 00:57:54;;;;;;;130.67;48.47;;;7.20;99.90;;;;;;5074568;28;20208;-61
2021/11/05 01:00:23;;;;;;;133.67;48.00;;;7.10;44.00;;;;;;5074350;28;20580;-61
2021/11/05 01:02:49;;;;;;;130.20;49.00;;;7.10;1.00;;;;;;5073995;28;20225;-60
2021/11/05 01:05:17;;;;;;;143.30;49.27;;;7.10;1.00;;;;;;5073950;28;20205;-60
2021/11/05 01:07:43;;;;;;;141.67;48.20;;;7.10;1.00;;;;;;5074078;28;20296;-61
2021/11/05 01:10:11;;;;;;;135.57;47.97;;;7.10;1.00;;;;;;5073976;28;20240;-61
2021/11/05 01:12:38;;;;;;;123.83;43.77;;;7.10;1.00;;;;;;5074095;28;20229;-61
2021/11/05 01:15:07;;;;;;;116.23;44.43;;;7.20;99.90;;;;;;5073776;28;20639;-60
2021/11/05 01:17:35;;;;;;;117.33;43.40;;;7.00;99.90;;;;;;5074101;28;20230;-61
2021/11/05 01:20:01;;;;;;;118.77;44.43;;;7.10;99.90;;;;;;5073871;28;20283;-61
2021/11/05 01:22:28;;;;;;;113.80;43.43;;;7.10;99.90;;;;;;5073718;28;20766;-61
2021/11/05 01:24:55;;;;;;;114.57;44.60;;;7.10;1.00;;;;;;5073279;28;20215;-61
2021/11/05 01:27:21;;;;;;;106.27;43.07;;;7.10;99.90;;;;;;5073940;28;20205;-61
2021/11/05 01:29:48;;;;;;;105.10;41.47;;;7.10;14.90;;;;;;5073943;28;20208;-61
2021/11/05 01:32:16;;;;;;;93.67;40.80;;;7.10;1.00;;;;;;5073616;28;20629;-61
2021/11/05 01:34:43;;;;;;;104.63;41.17;;;7.00;29.90;;;;;;5073351;28;20271;-61
2021/11/05 01:37:10;;;;;;;96.10;40.13;;;7.00;1.00;;;;;;5073062;28;20572;-61
2021/11/05 01:39:36;;;;;;;93.40;41.00;;;7.00;1.00;;;;;;5073551;28;20262;-61
2021/11/05 01:42:03;;;;;;;95.20;39.20;;;7.10;1.00;;;;;;5073490;28;20210;-61
2021/11/05 01:44:30;;;;;;;95.77;39.10;;;7.00;99.90;;;;;;5073352;28;20205;-61
2021/11/05 01:46:57;;;;;;;94.57;39.07;;;7.00;99.90;;;;;;5073102;28;20213;-61
2021/11/05 01:49:24;;;;;;;92.03;38.47;;;7.00;99.90;;;;;;5073382;28;20209;-61
2021/11/05 01:51:53;;;;;;;89.83;38.60;;;7.00;99.90;;;;;;5072926;28;20262;-60
2021/11/05 01:54:20;;;;;;;87.97;37.40;;;7.10;99.90;;;;;;5073119;28;20233;-61
2021/11/05 01:56:48;;;;;;;83.33;36.40;;;7.10;99.90;;;;;;5073089;28;20205;-61
2021/11/05 01:59:24;;;;;;;91.73;38.30;;;7.10;53.60;;;;;;5073115;28;20201;-61
2021/11/05 02:01:51;;;;;;;82.27;36.63;;;7.10;21.30;;;;;;5073064;28;20215;-60
2021/11/05 02:04:18;;;;;;;83.50;35.93;;;7.10;1.00;;;;;;5073266;28;20622;-60
2021/11/05 02:06:47;;;;;;;79.63;36.70;;;7.10;1.00;;;;;;5072608;28;20666;-61
2021/11/05 02:09:16;;;;;;;83.70;36.30;;;7.10;1.00;;;;;;5072951;28;20216;-61
2021/11/05 02:11:43;;;;;;;82.37;36.47;;;7.20;1.00;;;;;;5073145;28;20210;-61
2021/11/05 02:14:14;;;;;;;81.97;35.73;;;7.20;1.00;;;;;;5072958;28;20252;-61
2021/11/05 02:16:43;;;;;;;72.30;34.43;;;7.20;1.00;;;;;;5072676;28;20231;-61
2021/11/05 02:19:13;;;;;;;79.13;36.50;;;7.20;1.00;;;;;;5072884;28;20763;-61
2021/11/05 02:21:43;;;;;;;76.63;36.27;;;7.20;1.00;;;;;;5072730;28;20355;-61
2021/11/05 02:24:11;;;;;;;80.37;37.17;;;7.20;1.00;;;;;;5072702;28;20271;-61
2021/11/05 02:26:39;;;;;;;82.33;36.33;;;7.20;1.00;;;;;;5072116;28;20207;-62
2021/11/05 02:29:05;;;;;;;72.90;34.10;;;7.20;99.90;;;;;;5072433;28;20709;-61
2021/11/05 02:31:33;;;;;;;75.33;34.77;;;7.20;99.90;;;;;;5072363;28;20205;-61
2021/11/05 02:33:59;;;;;;;78.43;36.37;;;7.20;99.90;;;;;;5072466;28;20226;-61
2021/11/05 02:36:27;;;;;;;73.23;34.67;;;7.30;99.90;;;;;;5072286;28;20202;-60
2021/11/05 02:38:55;;;;;;;76.47;35.67;;;7.30;99.90;;;;;;5072646;28;20209;-61
2021/11/05 02:41:22;;;;;;;82.40;35.30;;;7.30;99.90;;;;;;5072553;28;20205;-61
2021/11/05 02:43:49;;;;;;;79.43;36.37;;;7.30;99.90;;;;;;5072039;28;20227;-61
2021/11/05 02:46:16;;;;;;;77.80;35.30;;;7.30;99.90;;;;;;5072192;28;20263;-61
2021/11/05 02:48:43;;;;;;;72.53;33.87;;;7.30;99.90;;;;;;5072442;28;20258;-61
2021/11/05 02:51:10;;;;;;;73.10;33.37;;;7.30;99.90;;;;;;5072234;28;20212;-61
2021/11/05 02:53:36;;;;;;;75.53;34.13;;;7.30;99.90;;;;;;5072161;28;20282;-61
2021/11/05 02:56:05;;;;;;;72.10;32.83;;;7.30;99.90;;;;;;5071719;28;20275;-61
2021/11/05 02:58:32;;;;;;;74.93;32.13;;;7.30;99.90;;;;;;5072205;28;20209;-61
2021/11/05 03:01:00;;;;;;;77.90;33.20;;;7.30;99.90;;;;;;5072169;28;20204;-61
2021/11/05 03:03:27;;;;;;;71.10;31.17;;;7.30;99.90;;;;;;5071787;28;20233;-60
2021/11/05 03:05:54;;;;;;;75.37;32.77;;;7.30;99.90;;;;;;5072041;28;20230;-59
2021/11/05 03:08:21;;;;;;;69.53;33.07;;;7.30;99.90;;;;;;5071998;28;20217;-60
2021/11/05 03:10:48;;;;;;;73.87;32.13;;;7.30;99.90;;;;;;5072166;28;20201;-60
2021/11/05 03:13:16;;;;;;;77.70;32.53;;;7.30;99.90;;;;;;5072037;28;20285;-60
2021/11/05 03:15:42;;;;;;;69.90;32.57;;;7.30;99.90;;;;;;5071623;28;20274;-61
2021/11/05 03:18:09;;;;;;;79.13;33.33;;;7.30;99.90;;;;;;5071829;28;20338;-61
2021/11/05 03:20:36;;;;;;;82.63;34.47;;;7.30;99.90;;;;;;5071881;28;20727;-60
2021/11/05 03:23:03;;;;;;;83.00;34.93;;;7.30;99.90;;;;;;5071492;28;20283;-63
2021/11/05 03:25:30;;;;;;;81.40;33.77;;;7.30;99.90;;;;;;5071524;28;20201;-59
2021/11/05 03:27:56;;;;;;;84.53;33.67;;;7.30;99.90;;;;;;5072117;28;20220;-59
2021/11/05 03:30:25;;;;;;;80.67;33.93;;;7.30;99.90;;;;;;5071887;28;20205;-60
2021/11/05 03:32:52;;;;;;;92.73;34.63;;;7.30;99.90;;;;;;5071776;28;20709;-60
2021/11/05 03:35:19;;;;;;;90.50;36.00;;;7.30;99.90;;;;;;5071345;28;20592;-59
2021/11/05 03:37:46;;;;;;;86.63;34.87;;;7.30;99.90;;;;;;5071962;28;20214;-61
2021/11/05 03:40:15;;;;;;;87.77;35.93;;;7.30;99.90;;;;;;5071646;28;20282;-61
2021/11/05 03:42:42;;;;;;;88.33;35.17;;;7.30;99.90;;;;;;5071823;28;20224;-61
2021/11/05 03:45:09;;;;;;;92.93;35.83;;;7.30;1.00;;;;;;5071193;28;20205;-61
2021/11/05 03:47:38;;;;;;;99.67;38.03;;;7.30;1.00;;;;;;5071660;28;20266;-61
2021/11/05 03:50:05;;;;;;;92.63;36.50;;;7.30;1.00;;;;;;5071686;28;20584;-60
2021/11/05 03:52:31;;;;;;;91.87;36.17;;;7.30;1.00;;;;;;5071209;28;20266;-60
2021/11/05 03:54:58;;;;;;;86.70;35.30;;;7.30;1.00;;;;;;5071477;28;20568;-61
2021/11/05 03:57:25;;;;;;;88.50;35.17;;;7.30;1.00;;;;;;5071598;28;20299;-60
2021/11/05 03:59:52;;;;;;;90.37;35.10;;;7.40;1.00;;;;;;5071647;28;20254;-61
2021/11/05 04:02:19;;;;;;;85.50;33.93;;;7.40;1.00;;;;;;5071548;28;20595;-61
2021/11/05 04:04:47;;;;;;;90.40;34.67;;;7.40;1.00;;;;;;5071020;28;20205;-61
2021/11/05 04:07:13;;;;;;;96.77;36.60;;;7.40;1.00;;;;;;5071238;28;20252;-60
2021/11/05 04:09:40;;;;;;;100.23;36.13;;;7.40;1.00;;;;;;5071364;28;20210;-61
2021/11/05 04:12:08;;;;;;;107.13;38.80;;;7.40;1.00;;;;;;5071571;28;20203;-60
2021/11/05 04:14:35;;;;;;;97.93;37.00;;;7.30;1.00;;;;;;5070916;28;20267;-62
2021/11/05 04:17:01;;;;;;;119.03;40.10;;;7.30;1.00;;;;;;5075198;28;20250;-61
2021/11/05 04:19:28;;;;;;;105.73;39.17;;;7.40;1.00;;;;;;5075042;28;20220;-60
2021/11/05 04:21:56;;;;;;;101.93;38.80;;;7.40;1.00;;;;;;5074611;28;20731;-60
2021/11/05 04:24:23;;;;;;;109.63;38.57;;;7.40;1.00;;;;;;5074878;28;20669;-61
2021/11/05 04:26:49;;;;;;;112.37;37.20;;;7.30;1.00;;;;;;5074735;28;20209;-60
2021/11/05 04:29:17;;;;;;;99.50;36.70;;;7.40;1.00;;;;;;5074953;28;20255;-60
2021/11/05 04:31:44;;;;;;;107.07;36.77;;;7.30;28.70;;;;;;5074761;28;20205;-60
2021/11/05 04:34:11;;;;;;;101.27;36.67;;;7.30;72.30;;;;;;5074407;28;20229;-61
2021/11/05 04:36:38;;;;;;;95.73;38.10;;;7.40;70.90;;;;;;5074481;28;20209;-61
2021/11/05 04:39:06;;;;;;;99.77;35.87;;;7.40;28.60;;;;;;5074815;28;20785;-60
2021/11/05 04:41:33;;;;;;;106.13;39.40;;;7.30;99.90;;;;;;5074747;28;20224;-61
2021/11/05 04:44:00;;;;;;;102.70;37.37;;;7.40;99.90;;;;;;5074523;28;20230;-60
2021/11/05 04:46:26;;;;;;;108.30;37.83;;;7.40;99.90;;;;;;5074269;28;20206;-61
2021/11/05 04:48:53;;;;;;;110.80;38.00;;;7.40;99.90;;;;;;5074375;28;20663;-61
2021/11/05 04:51:19;;;;;;;106.03;38.03;;;7.40;99.90;;;;;;5074721;28;20237;-61
2021/11/05 04:53:46;;;;;;;104.40;37.53;;;7.40;99.90;;;;;;5074556;28;20288;-61
2021/11/05 04:56:14;;;;;;;104.73;36.43;;;7.40;99.90;;;;;;5073813;28;20947;-61
2021/11/05 04:58:41;;;;;;;105.90;38.90;;;7.40;99.90;;;;;;5074354;28;20214;-61
2021/11/05 05:01:08;;;;;;;114.37;39.20;;;7.40;99.90;;;;;;5074201;28;20615;-61
2021/11/05 05:03:34;;;;;;;111.03;38.37;;;7.40;99.90;;;;;;5074076;28;20242;-61
2021/11/05 05:06:01;;;;;;;105.13;38.23;;;7.30;99.90;;;;;;5073987;28;20258;-61
2021/11/05 05:08:28;;;;;;;108.80;37.23;;;7.30;99.90;;;;;;5074400;28;20209;-60
2021/11/05 05:10:54;;;;;;;112.07;37.27;;;7.30;99.90;;;;;;5074255;28;20259;-61
2021/11/05 05:13:22;;;;;;;105.47;36.83;;;7.30;99.90;;;;;;5073972;28;20232;-60
2021/11/05 05:15:49;;;;;;;111.37;36.53;;;7.30;99.90;;;;;;5073581;28;20278;-61
2021/11/05 05:18:16;;;;;;;107.70;35.87;;;7.30;99.90;;;;;;5073772;28;20242;-60
2021/11/05 05:20:43;;;;;;;112.33;38.27;;;7.30;1.00;;;;;;5073857;28;20669;-61
2021/11/05 05:23:10;;;;;;;111.80;37.67;;;7.30;1.00;;;;;;5073913;28;20307;-61
2021/11/05 05:25:37;;;;;;;98.97;36.10;;;7.20;1.00;;;;;;5073354;28;20205;-61
2021/11/05 05:28:04;;;;;;;112.17;37.27;;;7.20;99.90;;;;;;5071964;28;20203;-61
2021/11/05 05:30:33;;;;;;;97.53;33.73;;;7.20;99.90;;;;;;5071693;28;20613;-61
2021/11/05 05:33:00;;;;;;;113.20;38.23;;;7.30;1.00;;;;;;5072648;28;20595;-61
2021/11/05 05:35:27;;;;;;;99.87;36.93;;;7.30;1.00;;;;;;5073180;28;20230;-61
2021/11/05 05:37:54;;;;;;;105.53;36.00;;;7.30;1.00;;;;;;5073550;28;20216;-65
2021/11/05 05:40:21;;;;;;;88.67;32.67;;;7.30;1.00;;;;;;5073281;28;20218;-60
2021/11/05 05:42:48;;;;;;;93.87;35.30;;;7.30;1.00;;;;;;5073361;28;20229;-60
2021/11/05 05:45:15;;;;;;;94.60;33.27;;;7.30;1.00;;;;;;5072948;28;20201;-65
2021/11/05 05:47:44;;;;;;;88.53;33.07;;;7.30;99.90;;;;;;5073316;28;20213;-62
2021/11/05 05:50:12;;;;;;;79.33;32.97;;;7.20;1.00;;;;;;5073327;28;20766;-62
2021/11/05 05:52:40;;;;;;;87.00;32.83;;;7.10;1.00;;;;;;5073064;28;20220;-62
2021/11/05 05:55:08;;;;;;;80.53;31.33;;;7.10;23.40;;;;;;5072743;28;20221;-61
2021/11/05 05:57:35;;;;;;;85.13;33.60;;;7.10;99.90;;;;;;5069299;28;21019;-61
2021/11/05 06:00:01;;;;;;;81.70;33.27;;;7.10;24.50;;;;;;5071976;28;20583;-61
2021/11/05 06:02:28;;;;;;;89.40;33.00;;;7.00;91.30;;;;;;5072763;28;20225;-60
2021/11/05 06:04:56;;;;;;;84.67;32.20;;;7.00;90.90;;;;;;5072255;28;20566;-61
2021/11/05 06:07:23;;;;;;;82.67;32.30;;;7.00;20.70;;;;;;5072924;28;20251;-61
2021/11/05 06:09:50;;;;;;;85.73;31.20;;;7.00;22.40;;;;;;5072376;28;20746;-61
2021/11/05 06:12:16;;;;;;;74.27;30.37;;;7.00;1.00;;;;;;5072281;28;20221;-61
2021/11/05 06:14:43;;;;;;;79.47;29.17;;;6.90;1.00;;;;;;5072312;28;20262;-61
2021/11/05 06:17:10;;;;;;;75.33;29.93;;;7.00;1.00;;;;;;5072764;28;20201;-61
2021/11/05 06:19:36;;;;;;;77.50;30.57;;;7.00;1.00;;;;;;5072471;28;20217;-61
2021/11/05 06:22:05;;;;;;;74.33;30.90;;;7.00;1.00;;;;;;5072149;28;20211;-60
2021/11/05 06:24:32;;;;;;;75.70;30.10;;;7.00;1.00;;;;;;5072433;28;20304;-61
2021/11/05 06:26:58;;;;;;;78.47;29.53;;;7.00;1.00;;;;;;5072358;28;20204;-61
2021/11/05 06:29:25;;;;;;;75.50;28.97;;;7.00;99.90;;;;;;5072458;28;20254;-61
2021/11/05 06:31:52;;;;;;;87.53;32.20;;;7.00;1.00;;;;;;5072008;28;20208;-61
2021/11/05 06:34:19;;;;;;;76.93;29.63;;;6.90;1.00;;;;;;5071485;28;20208;-62
2021/11/05 06:36:45;;;;;;;76.93;29.50;;;6.90;1.00;;;;;;5049927;28;20260;-61
2021/11/05 06:39:14;;;;;;;78.07;29.70;;;6.90;1.00;;;;;;5050599;28;20259;-61
2021/11/05 06:41:40;;;;;;;78.30;29.70;;;6.90;1.00;;;;;;5052112;28;20213;-63
2021/11/05 06:44:07;;;;;;;72.50;26.87;;;6.90;1.00;;;;;;5051837;28;20279;-63
2021/11/05 06:46:34;;;;;;;75.50;29.53;;;6.90;1.00;;;;;;5051497;28;20205;-63
2021/11/05 06:49:00;;;;;;;77.03;29.83;;;6.90;1.00;;;;;;5066259;28;20215;-63
2021/11/05 06:51:27;;;;;;;78.23;30.17;;;6.90;99.90;;;;;;5071737;28;20246;-62
2021/11/05 06:53:54;;;;;;;84.40;32.30;;;6.90;99.90;;;;;;5070591;28;20267;-64
2021/11/05 06:56:21;;;;;;;86.40;31.23;;;6.90;99.90;;;;;;5071603;28;20282;-63
2021/11/05 06:58:49;;;;;;;85.10;30.50;;;6.90;1.00;;;;;;5072522;28;20204;-65
2021/11/05 07:01:16;;;;;;;83.00;32.33;;;6.90;1.00;;;;;;5071691;28;20215;-63
2021/11/05 07:03:42;;;;;;;84.37;31.50;;;6.90;4.30;;;;;;5071504;28;20259;-63
2021/11/05 07:06:10;;;;;;;89.83;32.93;;;6.90;97.30;;;;;;5070679;28;20219;-63
2021/11/05 07:08:36;;;;;;;90.53;33.03;;;7.00;45.60;;;;;;5070870;28;20215;-63
2021/11/05 07:11:03;;;;;;;96.27;35.90;;;7.00;5.80;;;;;;5071175;28;20239;-62
2021/11/05 07:13:32;;;;;;;83.30;30.67;;;7.00;1.00;;;;;;5071435;28;20228;-62
2021/11/05 07:15:59;;;;;;;84.07;33.37;;;7.10;1.00;;;;;;5070640;28;20228;-63
2021/11/05 07:18:25;;;;;;;86.97;33.17;;;7.00;44.40;;;;;;5071537;28;20205;-64
2021/11/05 07:20:52;;;;;;;89.10;32.17;;;7.10;99.90;;;;;;5071299;28;20222;-63
2021/11/05 07:23:20;;;;;;;98.50;33.43;;;7.10;99.90;;;;;;5071289;28;20240;-63
2021/11/05 07:25:46;;;;;;;89.50;33.93;;;7.10;1.00;;;;;;5070888;28;20200;-61
2021/11/05 07:28:13;;;;;;;96.77;34.03;;;7.10;1.00;;;;;;5071760;28;20266;-60
2021/11/05 07:30:41;;;;;;;96.87;34.27;;;7.00;99.90;;;;;;5071182;28;20235;-60
2021/11/05 07:33:08;;;;;;;101.10;33.50;;;7.00;1.00;;;;;;5071133;28;20229;-60
2021/11/05 07:35:35;;;;;;;110.07;32.60;;;7.10;1.00;;;;;;5070653;28;20224;-60
2021/11/05 07:38:02;;;;;;;93.10;31.70;;;7.00;30.50;;;;;;5071059;28;20237;-61
2021/11/05 07:40:31;;;;;;;86.97;29.93;;;7.00;1.00;;;;;;5071255;28;20291;-60
2021/11/05 07:42:58;;;;;;;91.77;30.93;;;7.00;1.00;;;;;;5070843;28;20750;-59
2021/11/05 07:45:25;;;;;;;88.97;31.83;;;7.00;1.00;;;;;;5070570;28;20201;-58
2021/11/05 07:47:55;;;;;;;96.03;31.93;;;7.00;99.90;;;;;;5064679;28;20259;-62
2021/11/05 07:50:23;;;;;;;91.87;32.33;;;7.10;99.90;;;;;;5074669;28;20204;-55
2021/11/05 07:52:50;;;;;;;101.50;33.00;;;7.00;99.90;;;;;;5073369;28;20224;-59
2021/11/05 07:55:16;;;;;;;88.87;31.17;;;7.10;99.90;;;;;;5074811;28;20205;-55
2021/11/05 07:57:43;;;;;;;99.57;33.03;;;7.10;99.90;;;;;;5075399;28;20206;-62
2021/11/05 08:00:12;;;;;;;95.17;33.00;;;7.10;1.00;;;;;;5075040;28;20673;-63
2021/11/05 08:02:39;;;;;;;98.57;32.37;;;7.20;1.00;;;;;;5074968;28;20229;-62
2021/11/05 08:05:08;;;;;;;94.60;31.50;;;7.20;1.00;;;;;;5074544;28;20299;-62
2021/11/05 08:07:35;;;;;;;93.10;31.50;;;7.20;1.00;;;;;;5074924;28;20208;-61
2021/11/05 08:10:02;;;;;;;90.27;28.07;;;7.20;99.90;;;;;;5074890;28;20676;-63
2021/11/05 08:12:28;;;;;;;85.60;29.47;;;7.20;1.00;;;;;;5074914;28;20229;-62
2021/11/05 08:14:55;;;;;;;82.73;31.13;;;7.20;1.00;;;;;;5074406;28;20258;-62
2021/11/05 08:17:24;;;;;;;89.33;30.70;;;7.20;99.90;;;;;;5074454;28;20235;-62
2021/11/05 08:19:51;;;;;;;82.53;30.93;;;7.20;99.90;;;;;;5075157;28;20205;-58
2021/11/05 08:22:19;;;;;;;78.07;28.97;;;7.20;1.00;;;;;;5074717;28;20224;-59
2021/11/05 08:24:47;;;;;;;81.13;29.47;;;7.20;99.90;;;;;;5074287;28;20681;-60
2021/11/05 08:27:13;;;;;;;78.00;29.07;;;7.20;99.90;;;;;;5074724;28;20238;-60
2021/11/05 08:29:40;;;;;;;88.23;30.20;;;7.20;99.90;;;;;;5074557;28;20212;-61
2021/11/05 08:32:09;;;;;;;88.13;30.80;;;7.20;1.00;;;;;;5074477;28;20262;-61
2021/11/05 08:34:37;;;;;;;85.20;30.77;;;7.30;1.00;;;;;;5074369;28;20582;-61
2021/11/05 08:37:04;;;;;;;86.33;29.60;;;7.40;1.00;;;;;;5074121;28;20321;-58
2021/11/05 08:39:32;;;;;;;83.50;30.07;;;7.20;99.90;;;;;;5074523;28;20215;-60
2021/11/05 08:41:58;;;;;;;89.37;31.40;;;7.20;1.00;;;;;;5074279;28;20695;-60
2021/11/05 08:44:25;;;;;;;85.17;30.73;;;7.30;21.70;;;;;;5073998;28;20300;-60
2021/11/05 08:46:52;;;;;;;78.60;30.67;;;7.30;1.00;;;;;;5074108;28;20208;-57
2021/11/05 08:49:22;;;;;;;82.80;31.13;;;7.40;1.00;;;;;;5074149;28;20213;-58
2021/11/05 08:51:49;;;;;;;74.90;29.27;;;7.40;1.00;;;;;;5074099;28;20752;-66
2021/11/05 08:54:15;;;;;;;82.80;29.53;;;7.50;1.00;;;;;;5074191;28;20246;-65
2021/11/05 08:56:44;;;;;;;83.37;31.23;;;7.50;1.00;;;;;;5073488;28;20647;-66
2021/11/05 08:59:11;;;;;;;77.30;30.27;;;7.70;49.70;;;;;;5074020;28;20276;-64
2021/11/05 09:01:37;;;;;;;63.53;26.13;;;7.80;1.00;;;;;;5073003;28;20616;-65
2021/11/05 09:04:05;;;;;;;62.37;25.37;;;7.90;99.90;;;;;;5073339;28;20234;-65
2021/11/05 09:06:31;;;;;;;53.63;24.23;;;8.00;1.00;;;;;;5073168;28;20211;-65
2021/11/05 09:09:00;;;;;;;62.77;25.00;;;7.90;22.00;;;;;;5073610;28;20245;-65
2021/11/05 09:11:28;;;;;;;59.67;24.83;;;7.80;1.00;;;;;;5073264;28;20238;-65
2021/11/05 09:13:56;;;;;;;55.00;25.83;;;7.90;2.00;;;;;;5073132;28;20238;-65
2021/11/05 09:16:24;;;;;;;54.03;24.53;;;7.90;1.00;;;;;;5073162;28;20238;-65
2021/11/05 09:18:51;;;;;;;58.43;25.50;;;8.10;99.90;;;;;;5073598;28;20207;-64
2021/11/05 09:21:18;;;;;;;54.37;24.40;;;8.20;13.50;;;;;;5073356;28;20255;-65
2021/11/05 09:23:44;;;;;;;55.27;25.20;;;8.30;1.00;;;;;;5073126;28;20601;-65
2021/11/05 09:26:11;;;;;;;55.30;23.30;;;8.40;1.00;;;;;;5072436;28;20354;-65
2021/11/05 09:28:38;;;;;;;53.23;25.10;;;8.30;1.00;;;;;;5073452;28;20210;-64
2021/11/05 09:31:06;;;;;;;53.57;24.17;;;8.50;1.00;;;;;;5073117;28;20203;-65
2021/11/05 09:33:33;;;;;;;50.97;24.37;;;8.60;99.90;;;;;;5073335;28;20231;-65
2021/11/05 09:35:59;;;;;;;47.20;23.37;;;8.40;99.90;;;;;;5072285;28;20341;-65
2021/11/05 09:38:26;;;;;;;46.10;22.67;;;8.50;99.90;;;;;;5072828;28;20257;-66
2021/11/05 09:40:53;;;;;;;53.70;25.30;;;8.50;99.90;;;;;;5073491;28;20203;-66
2021/11/05 09:43:21;;;;;;;52.47;23.70;;;8.60;99.90;;;;;;5072921;28;20738;-66
2021/11/05 09:45:49;;;;;;;53.40;25.13;;;8.60;99.90;;;;;;5072337;28;20245;-66
2021/11/05 09:48:17;;;;;;;50.07;23.80;;;8.60;99.90;;;;;;5072850;28;20212;-66
2021/11/05 09:50:44;;;;;;;46.93;23.83;;;8.60;99.90;;;;;;5072560;28;20209;-65
2021/11/05 09:53:11;;;;;;;46.67;23.30;;;8.70;99.90;;;;;;5072359;28;20229;-65
2021/11/05 09:55:47;;;;;;;51.90;25.67;;;8.70;99.90;;;;;;5072081;28;20216;-65
2021/11/05 09:58:16;;;;;;;49.43;23.43;;;8.80;99.90;;;;;;5072714;28;20216;-65
2021/11/05 10:00:43;;;;;;;48.30;23.33;;;8.90;99.90;;;;;;5072672;28;20402;-63
2021/11/05 10:03:10;;;;;;;46.17;22.57;;;8.90;99.90;;;;;;5072264;28;20236;-63
2021/11/05 10:05:39;;;;;;;47.33;23.70;;;8.80;99.90;;;;;;5071738;28;20689;-63
2021/11/05 10:08:07;;;;;;;46.93;23.20;;;8.70;99.90;;;;;;5072230;28;20212;-64
2021/11/05 10:10:36;;;;;;;45.03;23.70;;;8.80;99.90;;;;;;5072533;28;20205;-60
2021/11/05 10:13:05;;;;;;;45.63;21.73;;;8.80;99.90;;;;;;5071165;28;20235;-60
2021/11/05 10:15:41;;;;;;;48.00;23.73;;;8.80;99.90;;;;;;5071886;28;20211;-58
2021/11/05 10:18:11;;;;;;;43.93;22.47;;;8.80;99.90;;;;;;5072057;28;20774;-62
2021/11/05 10:20:40;;;;;;;48.47;22.87;;;8.90;99.90;;;;;;5072461;28;20208;-62
2021/11/05 10:23:06;;;;;;;48.37;24.23;;;9.00;99.90;;;;;;5072051;28;20232;-62
2021/11/05 10:25:37;;;;;;;48.57;23.43;;;9.00;99.90;;;;;;5071568;28;20931;-62
2021/11/05 10:28:12;;;;;;;46.50;23.67;;;9.00;99.90;;;;;;5071811;28;20215;-62
2021/11/05 10:30:50;;;;;;;47.90;25.07;;;9.00;99.90;;;;;;5071903;28;20209;-62
2021/11/05 10:33:19;;;;;;;44.63;24.17;;;9.00;99.90;;;;;;5072117;28;20259;-59
2021/11/05 10:35:50;;;;;;;46.90;25.20;;;9.00;99.90;;;;;;5071390;28;20262;-59
2021/11/05 10:38:18;;;;;;;46.23;24.17;;;9.00;99.90;;;;;;5071701;28;20196;-59
2021/11/05 10:40:48;;;;;;;47.77;23.20;;;9.10;99.90;;;;;;5071873;28;20707;-62
2021/11/05 10:43:29;;;;;;;42.40;23.50;;;9.20;99.90;;;;;;5071595;28;20634;-65
2021/11/05 10:45:56;;;;;;;41.00;23.27;;;9.20;99.90;;;;;;5071197;28;20212;-62
2021/11/05 10:48:26;;;;;;;42.80;23.03;;;9.20;99.90;;;;;;5071974;28;20276;-56
2021/11/05 10:50:55;;;;;;;45.63;22.00;;;9.10;99.90;;;;;;5071665;28;20234;-54
2021/11/05 10:53:25;;;;;;;40.90;21.97;;;9.20;99.90;;;;;;5071534;28;20746;-61
2021/11/05 10:55:54;;;;;;;40.90;22.53;;;9.20;99.90;;;;;;5071129;28;20208;-62
2021/11/05 10:58:24;;;;;;;36.97;22.43;;;9.20;99.90;;;;;;5071756;28;20228;-58
2021/11/05 11:00:54;;;;;;;38.97;22.27;;;9.20;98.00;;;;;;5071766;28;20211;-56
2021/11/05 11:03:25;;;;;;;39.33;21.97;;;9.10;99.90;;;;;;5071180;28;20729;-55
2021/11/05 11:05:54;;;;;;;41.83;23.13;;;9.10;99.40;;;;;;5070725;28;20227;-62
2021/11/05 11:08:23;;;;;;;37.97;22.17;;;9.20;99.90;;;;;;5071644;28;20296;-61
2021/11/05 11:10:51;;;;;;;41.40;21.80;;;9.40;99.90;;;;;;5071591;28;20611;-62
2021/11/05 11:13:34;;;;;;;33.37;19.07;;;9.50;99.90;;;;;;5071404;28;20229;-62
2021/11/05 11:16:03;;;;;;;38.20;20.67;;;9.60;63.70;;;;;;5071205;28;20581;-62
2021/11/05 11:18:30;;;;;;;37.40;20.70;;;9.60;69.20;;;;;;5071701;28;20227;-61
2021/11/05 11:20:59;;;;;;;38.03;21.30;;;9.80;99.90;;;;;;5071319;28;20224;-61
2021/11/05 11:23:25;;;;;;;38.80;23.23;;;10.00;75.30;;;;;;5071298;28;20225;-61
2021/11/05 11:25:52;;;;;;;37.30;20.50;;;10.00;46.10;;;;;;5070737;28;20208;-61
2021/11/05 11:28:19;;;;;;;33.33;19.80;;;10.10;34.90;;;;;;5070210;28;20201;-61
2021/11/05 11:30:45;;;;;;;33.90;21.27;;;10.10;17.40;;;;;;5071315;28;20212;-60
2021/11/05 11:33:13;;;;;;;34.13;20.37;;;10.00;3.70;;;;;;5070716;28;20239;-58
2021/11/05 11:35:46;;;;;;;35.90;21.77;;;10.00;1.00;;;;;;5070672;28;20205;-62
2021/11/05 11:38:20;;;;;;;31.93;20.47;;;9.90;4.40;;;;;;5070728;28;20641;-61
2021/11/05 11:40:49;;;;;;;30.20;19.87;;;10.00;3.80;;;;;;5071300;28;20207;-61
2021/11/05 11:43:18;;;;;;;30.80;19.90;;;9.90;1.00;;;;;;5070956;28;20240;-57
2021/11/05 11:45:47;;;;;;;33.37;19.93;;;10.00;1.00;;;;;;5070401;28;20812;-60
2021/11/05 11:48:51;;;;;;;35.53;20.70;;;10.00;1.00;;;;;;5071160;28;20254;-60
2021/11/05 11:51:25;;;;;;;38.23;21.13;;;10.10;3.90;;;;;;5070789;28;20547;-60
2021/11/05 11:53:56;;;;;;;37.07;21.10;;;10.00;3.90;;;;;;5070789;28;20232;-60
2021/11/05 11:56:33;;;;;;;33.17;19.50;;;10.10;4.00;;;;;;5070589;28;20212;-64
2021/11/05 11:59:02;;;;;;;30.97;18.70;;;10.20;3.90;;;;;;5070910;28;20689;-64
2021/11/05 12:01:32;;;;;;;29.77;19.00;;;10.30;1.00;;;;;;5071077;28;20209;-62
2021/11/05 12:04:01;;;;;;;29.97;19.37;;;10.40;1.00;;;;;;5070517;28;20229;-62
2021/11/05 12:06:48;;;;;;;33.53;21.13;;;10.40;1.00;;;;;;5069965;28;20305;-62
2021/11/05 12:09:24;;;;;;;28.87;20.77;;;10.50;1.00;;;;;;5070626;28;20621;-62
2021/11/05 12:11:51;;;;;;;33.17;21.17;;;10.30;1.00;;;;;;5070948;28;20616;-62
2021/11/05 12:14:19;;;;;;;35.50;20.73;;;10.40;1.00;;;;;;5070893;28;20208;-63
2021/11/05 12:17:01;;;;;;;29.63;20.23;;;10.40;1.00;;;;;;5069872;28;20880;-63
2021/11/05 12:19:36;;;;;;;28.27;18.50;;;10.50;1.00;;;;;;5071109;28;20201;-63
2021/11/05 12:22:12;;;;;;;28.07;18.63;;;10.60;1.00;;;;;;5070831;28;20208;-63
2021/11/05 12:24:41;;;;;;;27.47;18.43;;;10.60;1.00;;;;;;5070482;28;20213;-64
2021/11/05 12:27:20;;;;;;;26.60;16.93;;;10.50;1.00;;;;;;5070304;28;20201;-64
2021/11/05 12:30:02;;;;;;;26.97;17.77;;;10.60;1.00;;;;;;5070944;28;20311;-63
2021/11/05 12:32:32;;;;;;;23.30;16.27;;;10.60;1.00;;;;;;5070600;28;20229;-62
2021/11/05 12:35:19;;;;;;;27.87;17.07;;;10.70;1.00;;;;;;5070262;28;20206;-62
2021/11/05 12:38:12;;;;;;;23.70;17.13;;;10.80;1.00;;;;;;5073431;28;20221;-63
2021/11/05 12:40:58;;;;;;;29.77;17.63;;;10.90;1.00;;;;;;5074263;28;20220;-62
2021/11/05 12:43:46;;;;;;;22.47;15.67;;;11.00;1.00;;;;;;5074016;28;20228;-63